sensor_id;sensor_type;location;lat;lon;timestamp;P1;durP1;ratioP1;P2;durP2;ratioP2
12861;SDS011;6499;66.348;14.134;2023-05-24T00:01:42;2.13;;;1.90;;
12861;SDS011;6499;66.348;14.134;2023-05-24T00:04:09;2.07;;;1.40;;
12861;SDS011;6499;66.348;14.134;2023-05-24T00:06:36;3.50;;;1.80;;
12861;SDS011;6499;66.348;14.134;2023-05-24T00:09:02;2.33;;;1.50;;
12861;SDS011;6499;66.348;14.134;2023-05-24T00:11:29;2.67;;;1.50;;
12861;SDS011;6499;66.348;14.134;2023-05-24T00:13:55;3.50;;;1.50;;
12861;SDS011;6499;66.348;14.134;2023-05-24T00:16:24;2.00;;;1.70;;
12861;SDS011;6499;66.348;14.134;2023-05-24T00:18:50;2.23;;;1.80;;
12861;SDS011;6499;66.348;14.134;2023-05-24T00:21:17;3.40;;;2.00;;
12861;SDS011;6499;66.348;14.134;2023-05-24T00:23:43;2.33;;;1.90;;
12861;SDS011;6499;66.348;14.134;2023-05-24T00:26:10;3.33;;;1.90;;
12861;SDS011;6499;66.348;14.134;2023-05-24T00:28:36;1.63;;;1.50;;
12861;SDS011;6499;66.348;14.134;2023-05-24T00:31:03;2.70;;;1.90;;
12861;SDS011;6499;66.348;14.134;2023-05-24T00:33:31;2.53;;;2.00;;
12861;SDS011;6499;66.348;14.134;2023-05-24T00:35:57;2.93;;;2.10;;
12861;SDS011;6499;66.348;14.134;2023-05-24T00:38:24;2.87;;;1.90;;
12861;SDS011;6499;66.348;14.134;2023-05-24T00:40:50;3.13;;;2.10;;
12861;SDS011;6499;66.348;14.134;2023-05-24T00:43:17;3.83;;;2.27;;
12861;SDS011;6499;66.348;14.134;2023-05-24T00:45:44;3.27;;;2.13;;
12861;SDS011;6499;66.348;14.134;2023-05-24T00:48:10;3.07;;;2.10;;
12861;SDS011;6499;66.348;14.134;2023-05-24T00:50:39;4.90;;;2.80;;
12861;SDS011;6499;66.348;14.134;2023-05-24T00:53:05;2.50;;;1.70;;
12861;SDS011;6499;66.348;14.134;2023-05-24T00:55:33;5.60;;;2.40;;
12861;SDS011;6499;66.348;14.134;2023-05-24T00:58:00;2.97;;;2.30;;
12861;SDS011;6499;66.348;14.134;2023-05-24T01:00:27;3.53;;;2.00;;
12861;SDS011;6499;66.348;14.134;2023-05-24T01:02:54;5.50;;;2.30;;
12861;SDS011;6499;66.348;14.134;2023-05-24T01:05:21;3.07;;;2.10;;
12861;SDS011;6499;66.348;14.134;2023-05-24T01:07:53;4.93;;;2.57;;
12861;SDS011;6499;66.348;14.134;2023-05-24T01:10:24;3.30;;;2.30;;
12861;SDS011;6499;66.348;14.134;2023-05-24T01:12:57;3.00;;;2.40;;
12861;SDS011;6499;66.348;14.134;2023-05-24T01:15:29;3.80;;;2.20;;
12861;SDS011;6499;66.348;14.134;2023-05-24T01:17:59;3.40;;;2.40;;
12861;SDS011;6499;66.348;14.134;2023-05-24T01:20:27;4.00;;;2.37;;
12861;SDS011;6499;66.348;14.134;2023-05-24T01:23:04;4.17;;;2.10;;
12861;SDS011;6499;66.348;14.134;2023-05-24T01:25:40;4.40;;;2.37;;
12861;SDS011;6499;66.348;14.134;2023-05-24T01:28:12;4.23;;;2.10;;
12861;SDS011;6499;66.348;14.134;2023-05-24T01:30:39;3.07;;;2.07;;
12861;SDS011;6499;66.348;14.134;2023-05-24T01:33:06;2.40;;;1.80;;
12861;SDS011;6499;66.348;14.134;2023-05-24T01:35:33;2.70;;;2.10;;
12861;SDS011;6499;66.348;14.134;2023-05-24T01:38:04;3.10;;;2.30;;
12861;SDS011;6499;66.348;14.134;2023-05-24T01:40:30;4.27;;;2.20;;
12861;SDS011;6499;66.348;14.134;2023-05-24T01:42:58;2.63;;;1.80;;
12861;SDS011;6499;66.348;14.134;2023-05-24T01:45:32;3.00;;;2.23;;
12861;SDS011;6499;66.348;14.134;2023-05-24T01:48:00;2.33;;;1.73;;
12861;SDS011;6499;66.348;14.134;2023-05-24T01:50:30;3.23;;;2.13;;
12861;SDS011;6499;66.348;14.134;2023-05-24T01:52:57;2.53;;;1.83;;
12861;SDS011;6499;66.348;14.134;2023-05-24T01:55:27;3.97;;;2.00;;
12861;SDS011;6499;66.348;14.134;2023-05-24T01:57:55;3.20;;;2.20;;
12861;SDS011;6499;66.348;14.134;2023-05-24T02:00:23;2.40;;;2.07;;
12861;SDS011;6499;66.348;14.134;2023-05-24T02:02:52;3.83;;;2.20;;
12861;SDS011;6499;66.348;14.134;2023-05-24T02:05:18;3.80;;;2.33;;
12861;SDS011;6499;66.348;14.134;2023-05-24T02:07:46;2.50;;;2.07;;
12861;SDS011;6499;66.348;14.134;2023-05-24T02:10:12;2.87;;;2.17;;
12861;SDS011;6499;66.348;14.134;2023-05-24T02:12:39;2.73;;;2.07;;
12861;SDS011;6499;66.348;14.134;2023-05-24T02:15:06;5.53;;;3.17;;
12861;SDS011;6499;66.348;14.134;2023-05-24T02:17:33;6.03;;;4.63;;
12861;SDS011;6499;66.348;14.134;2023-05-24T02:20:01;9.93;;;5.67;;
12861;SDS011;6499;66.348;14.134;2023-05-24T02:22:27;6.17;;;3.93;;
12861;SDS011;6499;66.348;14.134;2023-05-24T02:24:54;7.00;;;4.77;;
12861;SDS011;6499;66.348;14.134;2023-05-24T02:27:21;7.63;;;5.10;;
12861;SDS011;6499;66.348;14.134;2023-05-24T02:29:48;6.03;;;4.33;;
12861;SDS011;6499;66.348;14.134;2023-05-24T02:32:14;4.83;;;3.50;;
12861;SDS011;6499;66.348;14.134;2023-05-24T02:34:41;6.83;;;4.03;;
12861;SDS011;6499;66.348;14.134;2023-05-24T02:37:09;6.13;;;3.97;;
12861;SDS011;6499;66.348;14.134;2023-05-24T02:39:38;5.03;;;3.67;;
12861;SDS011;6499;66.348;14.134;2023-05-24T02:42:05;4.40;;;2.80;;
12861;SDS011;6499;66.348;14.134;2023-05-24T02:44:32;4.63;;;2.40;;
12861;SDS011;6499;66.348;14.134;2023-05-24T02:46:59;4.13;;;2.77;;
12861;SDS011;6499;66.348;14.134;2023-05-24T02:49:26;4.37;;;3.03;;
12861;SDS011;6499;66.348;14.134;2023-05-24T02:51:52;3.17;;;2.60;;
12861;SDS011;6499;66.348;14.134;2023-05-24T02:54:20;5.23;;;2.67;;
12861;SDS011;6499;66.348;14.134;2023-05-24T02:56:46;4.10;;;2.53;;
12861;SDS011;6499;66.348;14.134;2023-05-24T02:59:13;5.57;;;2.80;;
12861;SDS011;6499;66.348;14.134;2023-05-24T03:01:40;4.03;;;2.60;;
12861;SDS011;6499;66.348;14.134;2023-05-24T03:04:06;3.63;;;2.30;;
12861;SDS011;6499;66.348;14.134;2023-05-24T03:06:33;2.63;;;2.00;;
12861;SDS011;6499;66.348;14.134;2023-05-24T03:09:00;4.93;;;2.10;;
12861;SDS011;6499;66.348;14.134;2023-05-24T03:11:28;4.67;;;2.53;;
12861;SDS011;6499;66.348;14.134;2023-05-24T03:13:54;4.77;;;2.70;;
12861;SDS011;6499;66.348;14.134;2023-05-24T03:16:21;4.53;;;2.37;;
12861;SDS011;6499;66.348;14.134;2023-05-24T03:18:47;5.40;;;2.57;;
12861;SDS011;6499;66.348;14.134;2023-05-24T03:21:15;3.20;;;2.20;;
12861;SDS011;6499;66.348;14.134;2023-05-24T03:23:41;4.40;;;2.43;;
12861;SDS011;6499;66.348;14.134;2023-05-24T03:26:08;3.67;;;2.27;;
12861;SDS011;6499;66.348;14.134;2023-05-24T03:28:36;3.47;;;2.07;;
12861;SDS011;6499;66.348;14.134;2023-05-24T03:31:04;2.97;;;2.30;;
12861;SDS011;6499;66.348;14.134;2023-05-24T03:33:30;5.17;;;3.70;;
12861;SDS011;6499;66.348;14.134;2023-05-24T03:35:57;4.80;;;3.47;;
12861;SDS011;6499;66.348;14.134;2023-05-24T03:38:24;4.80;;;2.90;;
12861;SDS011;6499;66.348;14.134;2023-05-24T03:40:51;4.13;;;2.57;;
12861;SDS011;6499;66.348;14.134;2023-05-24T03:43:17;2.83;;;2.13;;
12861;SDS011;6499;66.348;14.134;2023-05-24T03:45:45;4.10;;;2.50;;
12861;SDS011;6499;66.348;14.134;2023-05-24T03:48:12;4.30;;;2.43;;
12861;SDS011;6499;66.348;14.134;2023-05-24T03:50:38;3.00;;;2.00;;
12861;SDS011;6499;66.348;14.134;2023-05-24T03:53:05;3.87;;;2.30;;
12861;SDS011;6499;66.348;14.134;2023-05-24T03:55:31;3.93;;;2.40;;
12861;SDS011;6499;66.348;14.134;2023-05-24T03:57:58;3.63;;;2.50;;
12861;SDS011;6499;66.348;14.134;2023-05-24T04:00:24;2.97;;;2.30;;
12861;SDS011;6499;66.348;14.134;2023-05-24T04:02:52;4.33;;;2.33;;
12861;SDS011;6499;66.348;14.134;2023-05-24T04:05:20;3.03;;;1.90;;
12861;SDS011;6499;66.348;14.134;2023-05-24T04:07:48;3.40;;;2.10;;
12861;SDS011;6499;66.348;14.134;2023-05-24T04:10:15;3.00;;;2.07;;
12861;SDS011;6499;66.348;14.134;2023-05-24T04:12:41;3.43;;;2.50;;
12861;SDS011;6499;66.348;14.134;2023-05-24T04:15:08;3.47;;;2.20;;
12861;SDS011;6499;66.348;14.134;2023-05-24T04:17:38;3.37;;;2.10;;
12861;SDS011;6499;66.348;14.134;2023-05-24T04:20:08;1.93;;;1.73;;
12861;SDS011;6499;66.348;14.134;2023-05-24T04:22:35;2.97;;;2.00;;
12861;SDS011;6499;66.348;14.134;2023-05-24T04:25:01;2.90;;;2.20;;
12861;SDS011;6499;66.348;14.134;2023-05-24T04:27:28;2.43;;;2.20;;
12861;SDS011;6499;66.348;14.134;2023-05-24T04:29:55;4.23;;;2.30;;
12861;SDS011;6499;66.348;14.134;2023-05-24T04:32:21;3.37;;;2.30;;
12861;SDS011;6499;66.348;14.134;2023-05-24T04:34:48;2.50;;;1.80;;
12861;SDS011;6499;66.348;14.134;2023-05-24T04:37:17;3.33;;;1.90;;
12861;SDS011;6499;66.348;14.134;2023-05-24T04:39:44;4.00;;;2.10;;
12861;SDS011;6499;66.348;14.134;2023-05-24T04:42:11;4.00;;;2.00;;
12861;SDS011;6499;66.348;14.134;2023-05-24T04:44:39;1.67;;;1.57;;
12861;SDS011;6499;66.348;14.134;2023-05-24T04:47:05;3.53;;;2.07;;
12861;SDS011;6499;66.348;14.134;2023-05-24T04:49:32;2.60;;;1.90;;
12861;SDS011;6499;66.348;14.134;2023-05-24T04:51:59;2.30;;;1.93;;
12861;SDS011;6499;66.348;14.134;2023-05-24T04:54:27;1.90;;;1.70;;
12861;SDS011;6499;66.348;14.134;2023-05-24T04:56:53;3.03;;;1.90;;
12861;SDS011;6499;66.348;14.134;2023-05-24T04:59:20;2.77;;;1.80;;
12861;SDS011;6499;66.348;14.134;2023-05-24T05:01:46;2.43;;;1.70;;
12861;SDS011;6499;66.348;14.134;2023-05-24T05:04:13;2.90;;;1.70;;
12861;SDS011;6499;66.348;14.134;2023-05-24T05:06:39;2.27;;;1.97;;
12861;SDS011;6499;66.348;14.134;2023-05-24T05:09:08;2.23;;;1.80;;
12861;SDS011;6499;66.348;14.134;2023-05-24T05:11:39;2.20;;;1.50;;
12861;SDS011;6499;66.348;14.134;2023-05-24T05:14:05;4.43;;;2.07;;
12861;SDS011;6499;66.348;14.134;2023-05-24T05:16:33;1.90;;;1.60;;
12861;SDS011;6499;66.348;14.134;2023-05-24T05:19:00;2.10;;;1.53;;
12861;SDS011;6499;66.348;14.134;2023-05-24T05:21:28;3.57;;;1.90;;
12861;SDS011;6499;66.348;14.134;2023-05-24T05:23:57;2.57;;;1.70;;
12861;SDS011;6499;66.348;14.134;2023-05-24T05:26:23;2.97;;;1.67;;
12861;SDS011;6499;66.348;14.134;2023-05-24T05:28:52;2.43;;;1.60;;
12861;SDS011;6499;66.348;14.134;2023-05-24T05:31:19;3.10;;;1.80;;
12861;SDS011;6499;66.348;14.134;2023-05-24T05:33:46;3.07;;;1.13;;
12861;SDS011;6499;66.348;14.134;2023-05-24T05:36:13;2.17;;;1.50;;
12861;SDS011;6499;66.348;14.134;2023-05-24T05:38:39;1.93;;;1.43;;
12861;SDS011;6499;66.348;14.134;2023-05-24T05:41:06;2.30;;;1.60;;
12861;SDS011;6499;66.348;14.134;2023-05-24T05:43:32;3.13;;;1.60;;
12861;SDS011;6499;66.348;14.134;2023-05-24T05:46:00;3.00;;;1.70;;
12861;SDS011;6499;66.348;14.134;2023-05-24T05:48:27;1.53;;;1.33;;
12861;SDS011;6499;66.348;14.134;2023-05-24T05:50:53;3.20;;;1.77;;
12861;SDS011;6499;66.348;14.134;2023-05-24T05:53:20;2.53;;;1.63;;
12861;SDS011;6499;66.348;14.134;2023-05-24T05:55:46;4.53;;;2.20;;
12861;SDS011;6499;66.348;14.134;2023-05-24T05:58:13;3.67;;;2.43;;
12861;SDS011;6499;66.348;14.134;2023-05-24T06:00:39;4.77;;;2.47;;
12861;SDS011;6499;66.348;14.134;2023-05-24T06:03:07;4.07;;;1.80;;
12861;SDS011;6499;66.348;14.134;2023-05-24T06:05:34;3.53;;;2.10;;
12861;SDS011;6499;66.348;14.134;2023-05-24T06:08:00;2.80;;;1.90;;
12861;SDS011;6499;66.348;14.134;2023-05-24T06:10:27;2.23;;;1.93;;
12861;SDS011;6499;66.348;14.134;2023-05-24T06:12:53;3.27;;;1.60;;
12861;SDS011;6499;66.348;14.134;2023-05-24T06:15:20;2.17;;;1.50;;
12861;SDS011;6499;66.348;14.134;2023-05-24T06:17:47;3.07;;;1.53;;
12861;SDS011;6499;66.348;14.134;2023-05-24T06:20:15;4.03;;;1.80;;
12861;SDS011;6499;66.348;14.134;2023-05-24T06:22:42;3.70;;;1.83;;
12861;SDS011;6499;66.348;14.134;2023-05-24T06:25:09;2.73;;;1.30;;
12861;SDS011;6499;66.348;14.134;2023-05-24T06:27:39;4.20;;;2.13;;
12861;SDS011;6499;66.348;14.134;2023-05-24T06:30:07;3.40;;;1.90;;
12861;SDS011;6499;66.348;14.134;2023-05-24T06:32:34;4.00;;;2.00;;
12861;SDS011;6499;66.348;14.134;2023-05-24T06:35:01;2.80;;;2.10;;
12861;SDS011;6499;66.348;14.134;2023-05-24T06:37:29;4.80;;;2.43;;
12861;SDS011;6499;66.348;14.134;2023-05-24T06:39:56;5.77;;;2.20;;
12861;SDS011;6499;66.348;14.134;2023-05-24T06:42:22;2.60;;;1.87;;
12861;SDS011;6499;66.348;14.134;2023-05-24T06:44:49;4.43;;;2.40;;
12861;SDS011;6499;66.348;14.134;2023-05-24T06:47:15;5.77;;;2.33;;
12861;SDS011;6499;66.348;14.134;2023-05-24T06:49:42;3.43;;;2.33;;
12861;SDS011;6499;66.348;14.134;2023-05-24T06:52:09;2.27;;;2.00;;
12861;SDS011;6499;66.348;14.134;2023-05-24T06:54:37;3.53;;;2.70;;
12861;SDS011;6499;66.348;14.134;2023-05-24T06:57:03;4.20;;;2.33;;
12861;SDS011;6499;66.348;14.134;2023-05-24T06:59:30;3.60;;;2.30;;
12861;SDS011;6499;66.348;14.134;2023-05-24T07:01:57;2.83;;;2.00;;
12861;SDS011;6499;66.348;14.134;2023-05-24T07:04:23;2.70;;;1.27;;
12861;SDS011;6499;66.348;14.134;2023-05-24T07:06:51;4.17;;;2.30;;
12861;SDS011;6499;66.348;14.134;2023-05-24T07:09:17;3.47;;;2.07;;
12861;SDS011;6499;66.348;14.134;2023-05-24T07:11:46;3.50;;;2.13;;
12861;SDS011;6499;66.348;14.134;2023-05-24T07:14:12;3.87;;;2.50;;
12861;SDS011;6499;66.348;14.134;2023-05-24T07:16:39;6.53;;;2.90;;
12861;SDS011;6499;66.348;14.134;2023-05-24T07:19:05;4.40;;;2.30;;
12861;SDS011;6499;66.348;14.134;2023-05-24T07:21:32;4.37;;;2.23;;
12861;SDS011;6499;66.348;14.134;2023-05-24T07:23:58;3.73;;;2.00;;
12861;SDS011;6499;66.348;14.134;2023-05-24T07:26:26;5.47;;;2.00;;
12861;SDS011;6499;66.348;14.134;2023-05-24T07:28:54;2.40;;;1.87;;
12861;SDS011;6499;66.348;14.134;2023-05-24T07:31:20;6.27;;;2.30;;
12861;SDS011;6499;66.348;14.134;2023-05-24T07:33:47;4.33;;;2.13;;
12861;SDS011;6499;66.348;14.134;2023-05-24T07:36:13;3.03;;;2.10;;
12861;SDS011;6499;66.348;14.134;2023-05-24T07:38:40;3.67;;;2.43;;
12861;SDS011;6499;66.348;14.134;2023-05-24T07:41:06;4.47;;;2.33;;
12861;SDS011;6499;66.348;14.134;2023-05-24T07:43:33;2.50;;;2.30;;
12861;SDS011;6499;66.348;14.134;2023-05-24T07:46:03;3.00;;;2.03;;
12861;SDS011;6499;66.348;14.134;2023-05-24T07:48:29;3.73;;;2.63;;
12861;SDS011;6499;66.348;14.134;2023-05-24T07:50:56;3.10;;;1.67;;
12861;SDS011;6499;66.348;14.134;2023-05-24T07:53:22;3.97;;;1.97;;
12861;SDS011;6499;66.348;14.134;2023-05-24T07:55:49;2.97;;;1.63;;
12861;SDS011;6499;66.348;14.134;2023-05-24T07:58:15;2.87;;;1.50;;
12861;SDS011;6499;66.348;14.134;2023-05-24T08:00:42;2.87;;;1.53;;
12861;SDS011;6499;66.348;14.134;2023-05-24T08:03:10;3.20;;;1.53;;
12861;SDS011;6499;66.348;14.134;2023-05-24T08:05:38;3.23;;;1.50;;
12861;SDS011;6499;66.348;14.134;2023-05-24T08:08:05;2.93;;;1.67;;
12861;SDS011;6499;66.348;14.134;2023-05-24T08:10:31;2.20;;;1.43;;
12861;SDS011;6499;66.348;14.134;2023-05-24T08:12:58;2.87;;;1.40;;
12861;SDS011;6499;66.348;14.134;2023-05-24T08:15:25;4.03;;;2.20;;
12861;SDS011;6499;66.348;14.134;2023-05-24T08:17:51;3.20;;;2.00;;
12861;SDS011;6499;66.348;14.134;2023-05-24T08:20:19;2.80;;;2.00;;
12861;SDS011;6499;66.348;14.134;2023-05-24T08:22:46;2.33;;;1.20;;
12861;SDS011;6499;66.348;14.134;2023-05-24T08:25:13;2.30;;;1.37;;
12861;SDS011;6499;66.348;14.134;2023-05-24T08:27:40;1.63;;;1.50;;
12861;SDS011;6499;66.348;14.134;2023-05-24T08:30:06;2.30;;;1.40;;
12861;SDS011;6499;66.348;14.134;2023-05-24T08:32:33;1.90;;;1.00;;
12861;SDS011;6499;66.348;14.134;2023-05-24T08:35:00;1.60;;;1.00;;
12861;SDS011;6499;66.348;14.134;2023-05-24T08:37:28;1.73;;;0.73;;
12861;SDS011;6499;66.348;14.134;2023-05-24T08:39:57;0.80;;;0.60;;
12861;SDS011;6499;66.348;14.134;2023-05-24T08:42:24;1.47;;;0.77;;
12861;SDS011;6499;66.348;14.134;2023-05-24T08:44:51;1.27;;;0.80;;
12861;SDS011;6499;66.348;14.134;2023-05-24T08:47:19;0.70;;;0.70;;
12861;SDS011;6499;66.348;14.134;2023-05-24T08:49:46;1.90;;;0.70;;
12861;SDS011;6499;66.348;14.134;2023-05-24T08:52:13;0.70;;;0.70;;
12861;SDS011;6499;66.348;14.134;2023-05-24T08:54:41;1.43;;;0.80;;
12861;SDS011;6499;66.348;14.134;2023-05-24T08:57:08;2.17;;;0.67;;
12861;SDS011;6499;66.348;14.134;2023-05-24T08:59:36;2.00;;;0.70;;
12861;SDS011;6499;66.348;14.134;2023-05-24T09:02:03;1.60;;;0.83;;
12861;SDS011;6499;66.348;14.134;2023-05-24T09:04:30;1.53;;;0.70;;
12861;SDS011;6499;66.348;14.134;2023-05-24T09:06:57;1.10;;;0.70;;
12861;SDS011;6499;66.348;14.134;2023-05-24T09:09:24;1.17;;;0.80;;
12861;SDS011;6499;66.348;14.134;2023-05-24T09:11:57;1.00;;;0.50;;
12861;SDS011;6499;66.348;14.134;2023-05-24T09:14:25;0.70;;;0.70;;
12861;SDS011;6499;66.348;14.134;2023-05-24T09:16:52;1.30;;;0.70;;
12861;SDS011;6499;66.348;14.134;2023-05-24T09:19:19;0.50;;;0.50;;
12861;SDS011;6499;66.348;14.134;2023-05-24T09:21:46;1.40;;;0.70;;
12861;SDS011;6499;66.348;14.134;2023-05-24T09:24:13;0.70;;;0.50;;
12861;SDS011;6499;66.348;14.134;2023-05-24T09:26:40;1.77;;;0.70;;
12861;SDS011;6499;66.348;14.134;2023-05-24T09:29:09;1.00;;;0.73;;
12861;SDS011;6499;66.348;14.134;2023-05-24T09:31:35;0.77;;;0.60;;
12861;SDS011;6499;66.348;14.134;2023-05-24T09:34:02;0.50;;;0.50;;
12861;SDS011;6499;66.348;14.134;2023-05-24T09:36:29;1.50;;;0.60;;
12861;SDS011;6499;66.348;14.134;2023-05-24T09:39:04;0.60;;;0.57;;
12861;SDS011;6499;66.348;14.134;2023-05-24T09:41:32;0.40;;;0.40;;
12861;SDS011;6499;66.348;14.134;2023-05-24T09:43:59;0.30;;;0.30;;
12861;SDS011;6499;66.348;14.134;2023-05-24T09:46:29;3.40;;;0.50;;
12861;SDS011;6499;66.348;14.134;2023-05-24T09:49:00;0.40;;;0.40;;
12861;SDS011;6499;66.348;14.134;2023-05-24T09:51:27;0.50;;;0.40;;
12861;SDS011;6499;66.348;14.134;2023-05-24T09:53:59;0.70;;;0.70;;
12861;SDS011;6499;66.348;14.134;2023-05-24T09:56:26;0.87;;;0.60;;
12861;SDS011;6499;66.348;14.134;2023-05-24T09:58:53;1.67;;;1.00;;
12861;SDS011;6499;66.348;14.134;2023-05-24T10:01:21;1.13;;;0.70;;
12861;SDS011;6499;66.348;14.134;2023-05-24T10:03:52;1.23;;;0.60;;
12861;SDS011;6499;66.348;14.134;2023-05-24T10:06:19;2.07;;;0.70;;
12861;SDS011;6499;66.348;14.134;2023-05-24T10:08:46;0.73;;;0.40;;
12861;SDS011;6499;66.348;14.134;2023-05-24T10:11:13;2.43;;;0.60;;
12861;SDS011;6499;66.348;14.134;2023-05-24T10:13:40;1.80;;;0.60;;
12861;SDS011;6499;66.348;14.134;2023-05-24T10:16:06;2.10;;;0.50;;
12861;SDS011;6499;66.348;14.134;2023-05-24T10:18:33;1.97;;;0.67;;
12861;SDS011;6499;66.348;14.134;2023-05-24T10:21:01;1.03;;;0.47;;
12861;SDS011;6499;66.348;14.134;2023-05-24T10:23:31;1.23;;;0.70;;
12861;SDS011;6499;66.348;14.134;2023-05-24T10:26:01;1.57;;;0.80;;
12861;SDS011;6499;66.348;14.134;2023-05-24T10:28:28;1.37;;;0.80;;
12861;SDS011;6499;66.348;14.134;2023-05-24T10:31:00;1.13;;;0.90;;
12861;SDS011;6499;66.348;14.134;2023-05-24T10:33:28;1.97;;;0.90;;
12861;SDS011;6499;66.348;14.134;2023-05-24T10:35:55;1.00;;;0.70;;
12861;SDS011;6499;66.348;14.134;2023-05-24T10:38:23;2.90;;;1.00;;
12861;SDS011;6499;66.348;14.134;2023-05-24T10:40:50;2.53;;;1.03;;
12861;SDS011;6499;66.348;14.134;2023-05-24T10:43:17;3.03;;;0.93;;
12861;SDS011;6499;66.348;14.134;2023-05-24T10:45:46;2.07;;;0.87;;
12861;SDS011;6499;66.348;14.134;2023-05-24T10:50:59;2.30;;;0.80;;
12861;SDS011;6499;66.348;14.134;2023-05-24T10:53:28;2.33;;;1.23;;
12861;SDS011;6499;66.348;14.134;2023-05-24T10:55:58;1.80;;;1.00;;
12861;SDS011;6499;66.348;14.134;2023-05-24T11:01:13;3.47;;;1.50;;
12861;SDS011;6499;66.348;14.134;2023-05-24T11:03:50;3.23;;;1.40;;
12861;SDS011;6499;66.348;14.134;2023-05-24T11:06:17;7.07;;;1.50;;
12861;SDS011;6499;66.348;14.134;2023-05-24T11:08:45;3.30;;;1.20;;
12861;SDS011;6499;66.348;14.134;2023-05-24T11:11:12;3.77;;;1.67;;
12861;SDS011;6499;66.348;14.134;2023-05-24T11:13:40;4.57;;;2.03;;
12861;SDS011;6499;66.348;14.134;2023-05-24T11:16:07;5.37;;;1.83;;
12861;SDS011;6499;66.348;14.134;2023-05-24T11:18:35;5.90;;;1.83;;
12861;SDS011;6499;66.348;14.134;2023-05-24T11:21:04;3.63;;;1.70;;
12861;SDS011;6499;66.348;14.134;2023-05-24T11:23:32;5.67;;;1.83;;
12861;SDS011;6499;66.348;14.134;2023-05-24T11:26:00;5.17;;;2.10;;
12861;SDS011;6499;66.348;14.134;2023-05-24T11:28:27;5.40;;;2.60;;
12861;SDS011;6499;66.348;14.134;2023-05-24T11:30:54;5.67;;;2.00;;
12861;SDS011;6499;66.348;14.134;2023-05-24T11:33:21;4.80;;;2.63;;
12861;SDS011;6499;66.348;14.134;2023-05-24T11:35:49;6.93;;;2.20;;
12861;SDS011;6499;66.348;14.134;2023-05-24T11:38:16;7.90;;;2.53;;
12861;SDS011;6499;66.348;14.134;2023-05-24T11:40:43;8.10;;;2.30;;
12861;SDS011;6499;66.348;14.134;2023-05-24T11:43:12;7.63;;;2.60;;
12861;SDS011;6499;66.348;14.134;2023-05-24T11:45:40;7.97;;;2.33;;
12861;SDS011;6499;66.348;14.134;2023-05-24T11:48:07;7.03;;;2.17;;
12861;SDS011;6499;66.348;14.134;2023-05-24T11:50:36;6.53;;;1.60;;
12861;SDS011;6499;66.348;14.134;2023-05-24T11:53:03;3.90;;;1.60;;
12861;SDS011;6499;66.348;14.134;2023-05-24T11:55:30;3.73;;;1.70;;
12861;SDS011;6499;66.348;14.134;2023-05-24T11:57:57;3.43;;;1.43;;
12861;SDS011;6499;66.348;14.134;2023-05-24T12:00:26;2.87;;;1.10;;
12861;SDS011;6499;66.348;14.134;2023-05-24T12:02:55;1.93;;;1.07;;
12861;SDS011;6499;66.348;14.134;2023-05-24T12:05:21;4.07;;;1.10;;
12861;SDS011;6499;66.348;14.134;2023-05-24T12:07:58;3.23;;;0.97;;
12861;SDS011;6499;66.348;14.134;2023-05-24T12:10:25;2.63;;;1.17;;
12861;SDS011;6499;66.348;14.134;2023-05-24T12:12:52;3.00;;;1.07;;
12861;SDS011;6499;66.348;14.134;2023-05-24T12:15:18;3.47;;;1.30;;
12861;SDS011;6499;66.348;14.134;2023-05-24T12:17:47;2.23;;;1.20;;
12861;SDS011;6499;66.348;14.134;2023-05-24T12:20:16;3.17;;;1.07;;
12861;SDS011;6499;66.348;14.134;2023-05-24T12:22:46;3.40;;;1.07;;
12861;SDS011;6499;66.348;14.134;2023-05-24T12:25:15;3.10;;;1.13;;
12861;SDS011;6499;66.348;14.134;2023-05-24T12:27:44;3.53;;;1.00;;
12861;SDS011;6499;66.348;14.134;2023-05-24T12:30:12;3.77;;;1.33;;
12861;SDS011;6499;66.348;14.134;2023-05-24T12:32:44;5.30;;;1.20;;
12861;SDS011;6499;66.348;14.134;2023-05-24T12:35:12;3.87;;;1.50;;
12861;SDS011;6499;66.348;14.134;2023-05-24T12:37:39;3.97;;;1.33;;
12861;SDS011;6499;66.348;14.134;2023-05-24T12:40:13;3.63;;;1.60;;
12861;SDS011;6499;66.348;14.134;2023-05-24T12:42:41;3.90;;;1.40;;
12861;SDS011;6499;66.348;14.134;2023-05-24T12:45:08;4.57;;;1.43;;
12861;SDS011;6499;66.348;14.134;2023-05-24T12:47:35;4.30;;;1.70;;
12861;SDS011;6499;66.348;14.134;2023-05-24T12:50:02;3.20;;;1.17;;
12861;SDS011;6499;66.348;14.134;2023-05-24T12:52:30;6.70;;;1.67;;
12861;SDS011;6499;66.348;14.134;2023-05-24T12:54:56;3.03;;;1.47;;
12861;SDS011;6499;66.348;14.134;2023-05-24T12:57:23;4.13;;;1.47;;
12861;SDS011;6499;66.348;14.134;2023-05-24T12:59:49;4.67;;;1.50;;
12861;SDS011;6499;66.348;14.134;2023-05-24T13:02:16;4.40;;;1.50;;
12861;SDS011;6499;66.348;14.134;2023-05-24T13:04:43;5.83;;;1.60;;
12861;SDS011;6499;66.348;14.134;2023-05-24T13:07:10;5.77;;;1.70;;
12861;SDS011;6499;66.348;14.134;2023-05-24T13:09:38;8.33;;;2.37;;
12861;SDS011;6499;66.348;14.134;2023-05-24T13:12:05;8.93;;;2.10;;
12861;SDS011;6499;66.348;14.134;2023-05-24T13:14:32;10.60;;;2.40;;
12861;SDS011;6499;66.348;14.134;2023-05-24T13:16:59;7.43;;;2.53;;
12861;SDS011;6499;66.348;14.134;2023-05-24T13:19:25;10.27;;;2.83;;
12861;SDS011;6499;66.348;14.134;2023-05-24T13:21:52;13.97;;;3.40;;
12861;SDS011;6499;66.348;14.134;2023-05-24T13:24:19;8.43;;;2.43;;
12861;SDS011;6499;66.348;14.134;2023-05-24T13:26:47;11.23;;;3.27;;
12861;SDS011;6499;66.348;14.134;2023-05-24T13:29:14;14.03;;;3.93;;
12861;SDS011;6499;66.348;14.134;2023-05-24T13:31:41;6.13;;;2.53;;
12861;SDS011;6499;66.348;14.134;2023-05-24T13:34:07;11.30;;;3.07;;
12861;SDS011;6499;66.348;14.134;2023-05-24T13:36:35;8.87;;;3.40;;
12861;SDS011;6499;66.348;14.134;2023-05-24T13:39:02;10.77;;;3.83;;
12861;SDS011;6499;66.348;14.134;2023-05-24T13:41:28;11.40;;;4.00;;
12861;SDS011;6499;66.348;14.134;2023-05-24T13:43:57;10.00;;;3.57;;
12861;SDS011;6499;66.348;14.134;2023-05-24T13:46:23;12.90;;;4.43;;
12861;SDS011;6499;66.348;14.134;2023-05-24T13:48:50;12.40;;;3.73;;
12861;SDS011;6499;66.348;14.134;2023-05-24T13:51:17;10.70;;;3.77;;
12861;SDS011;6499;66.348;14.134;2023-05-24T13:53:44;9.83;;;3.03;;
12861;SDS011;6499;66.348;14.134;2023-05-24T13:56:11;8.87;;;3.17;;
12861;SDS011;6499;66.348;14.134;2023-05-24T13:58:38;8.97;;;3.00;;
12861;SDS011;6499;66.348;14.134;2023-05-24T14:01:07;9.77;;;3.70;;
12861;SDS011;6499;66.348;14.134;2023-05-24T14:03:34;14.23;;;3.67;;
12861;SDS011;6499;66.348;14.134;2023-05-24T14:06:00;11.70;;;3.60;;
12861;SDS011;6499;66.348;14.134;2023-05-24T14:08:27;12.50;;;3.40;;
12861;SDS011;6499;66.348;14.134;2023-05-24T14:10:54;14.33;;;3.53;;
12861;SDS011;6499;66.348;14.134;2023-05-24T14:13:20;13.80;;;3.47;;
12861;SDS011;6499;66.348;14.134;2023-05-24T14:15:47;10.23;;;3.30;;
12861;SDS011;6499;66.348;14.134;2023-05-24T14:18:16;17.03;;;3.60;;
12861;SDS011;6499;66.348;14.134;2023-05-24T14:20:42;12.77;;;2.97;;
12861;SDS011;6499;66.348;14.134;2023-05-24T14:23:09;6.90;;;2.73;;
12861;SDS011;6499;66.348;14.134;2023-05-24T14:25:35;10.17;;;2.70;;
12861;SDS011;6499;66.348;14.134;2023-05-24T14:28:02;9.63;;;3.00;;
12861;SDS011;6499;66.348;14.134;2023-05-24T14:30:29;12.77;;;3.40;;
12861;SDS011;6499;66.348;14.134;2023-05-24T14:32:56;7.40;;;2.43;;
12861;SDS011;6499;66.348;14.134;2023-05-24T14:50:53;7.17;;;2.70;;
12861;SDS011;6499;66.348;14.134;2023-05-24T14:53:20;8.30;;;2.47;;
12861;SDS011;6499;66.348;14.134;2023-05-24T14:55:46;12.37;;;3.20;;
12861;SDS011;6499;66.348;14.134;2023-05-24T14:58:18;11.90;;;3.37;;
12861;SDS011;6499;66.348;14.134;2023-05-24T15:00:45;15.30;;;3.30;;
12861;SDS011;6499;66.348;14.134;2023-05-24T15:03:25;10.23;;;3.10;;
12861;SDS011;6499;66.348;14.134;2023-05-24T15:05:51;9.23;;;2.87;;
12861;SDS011;6499;66.348;14.134;2023-05-24T15:08:19;10.13;;;3.17;;